Time;durP1;ratioP1;P1;durP2;ratioP2;P2;SDS_P1;SDS_P2;PMS_P1;PMS_P2;Temp;Humidity;BMP_temperature;BMP_pressure;BME280_temperature;BME280_humidity;BME280_pressure;Samples;Min_cycle;Max_cycle;Signal;HPM_P1;HPM_P2
2022/11/07 00:03:54;;;;;;;2.10;2.00;;;11.80;47.20;;;;;;10442336;28;20241;-68
2022/11/07 00:08:58;;;;;;;2.20;2.10;;;11.80;46.80;;;;;;10433425;28;20285;-68
2022/11/07 00:14:03;;;;;;;2.33;2.13;;;11.80;46.80;;;;;;10429597;28;20605;-69
2022/11/07 00:19:06;;;;;;;2.10;2.00;;;11.90;46.80;;;;;;10425866;28;20225;-72
2022/11/07 00:24:10;;;;;;;2.27;2.07;;;11.90;47.00;;;;;;10417932;28;20237;-72
2022/11/07 00:29:15;;;;;;;2.27;2.17;;;11.90;47.20;;;;;;10426391;28;20236;-72
2022/11/07 00:34:18;;;;;;;2.23;2.03;;;11.90;47.00;;;;;;10420456;28;20237;-72
2022/11/07 00:39:21;;;;;;;2.40;2.23;;;11.90;47.30;;;;;;10416355;28;21859;-73
2022/11/07 00:44:26;;;;;;;2.23;2.13;;;12.00;47.50;;;;;;10425206;28;20255;-72
2022/11/07 00:49:29;;;;;;;2.10;2.00;;;12.00;47.20;;;;;;10421672;28;20723;-68
2022/11/07 00:54:32;;;;;;;2.37;2.17;;;12.10;47.50;;;;;;10420881;28;20241;-69
2022/11/07 00:59:36;;;;;;;2.37;1.97;;;12.20;47.40;;;;;;10420953;28;20237;-68
2022/11/07 01:10:00;;;;;;;2.10;2.00;;;12.30;47.20;;;;;;10416642;28;20643;-72
2022/11/07 01:15:05;;;;;;;2.20;2.10;;;12.40;47.10;;;;;;10414958;28;20894;-72
2022/11/07 01:20:10;;;;;;;1.93;1.83;;;12.40;46.60;;;;;;10420355;28;20232;-68
2022/11/07 01:25:13;;;;;;;2.10;1.90;;;12.40;46.70;;;;;;10440993;28;20233;-68
2022/11/07 01:30:18;;;;;;;1.77;1.67;;;12.50;47.00;;;;;;10431609;28;20241;-68
2022/11/07 01:35:21;;;;;;;2.00;1.90;;;12.50;46.90;;;;;;10428383;28;20892;-70
2022/11/07 01:40:24;;;;;;;1.80;1.70;;;12.50;47.20;;;;;;10415707;28;20241;-70
2022/11/07 01:45:30;;;;;;;1.83;1.70;;;12.50;47.30;;;;;;10419694;28;20237;-70
2022/11/07 01:50:33;;;;;;;1.83;1.73;;;12.50;47.30;;;;;;10421089;28;20248;-70
2022/11/07 01:55:37;;;;;;;1.70;1.60;;;12.50;47.40;;;;;;10422949;28;20291;-68
2022/11/07 02:00:41;;;;;;;1.93;1.73;;;12.60;47.50;;;;;;10416923;28;20253;-68
2022/11/07 02:05:49;;;;;;;1.60;1.50;;;12.60;47.60;;;;;;10416945;28;20241;-73
2022/11/07 02:10:53;;;;;;;1.90;1.80;;;12.60;47.40;;;;;;10424725;28;20306;-72
2022/11/07 02:15:59;;;;;;;1.60;1.50;;;12.60;47.40;;;;;;10417709;28;20236;-72
2022/11/07 02:21:08;;;;;;;2.97;1.70;;;12.60;47.30;;;;;;10418949;28;20279;-71
2022/11/07 02:26:13;;;;;;;1.70;1.60;;;12.60;47.10;;;;;;10420033;28;20639;-70
2022/11/07 02:31:16;;;;;;;1.70;1.60;;;12.60;47.50;;;;;;10417256;28;20781;-70
2022/11/07 02:36:22;;;;;;;1.67;1.57;;;12.70;47.60;;;;;;10418592;28;20272;-70
2022/11/07 02:41:31;;;;;;;1.60;1.50;;;12.60;47.60;;;;;;10418775;28;20240;-70
2022/11/07 02:46:35;;;;;;;1.57;1.47;;;12.60;47.60;;;;;;10419082;28;20236;-70
2022/11/07 02:51:38;;;;;;;1.70;1.60;;;12.60;47.50;;;;;;10423558;28;20788;-68
2022/11/07 02:56:42;;;;;;;1.60;1.50;;;12.60;47.60;;;;;;10422099;28;20229;-72
2022/11/07 03:01:46;;;;;;;1.70;1.60;;;12.60;47.50;;;;;;10420615;28;20727;-72
2022/11/07 03:06:49;;;;;;;1.90;1.80;;;12.60;47.60;;;;;;10415743;28;20225;-72
2022/11/07 03:11:53;;;;;;;1.73;1.63;;;12.60;47.60;;;;;;10422864;28;20279;-73
2022/11/07 03:16:56;;;;;;;1.80;1.70;;;12.60;47.60;;;;;;10421450;28;20229;-68
2022/11/07 03:22:00;;;;;;;2.20;1.60;;;12.60;47.50;;;;;;10422324;28;20222;-68
2022/11/07 03:27:04;;;;;;;1.73;1.63;;;12.70;47.40;;;;;;10424812;28;20229;-69
2022/11/07 03:32:07;;;;;;;1.73;1.63;;;12.70;46.90;;;;;;10419225;28;20241;-68
2022/11/07 03:37:10;;;;;;;2.03;1.93;;;12.60;46.60;;;;;;10422752;28;20669;-70
2022/11/07 03:42:15;;;;;;;1.90;1.80;;;12.60;46.50;;;;;;10423887;28;20237;-69
2022/11/07 03:47:18;;;;;;;1.90;1.63;;;12.50;46.30;;;;;;10422021;28;20237;-70
2022/11/07 03:52:21;;;;;;;1.70;1.60;;;12.50;46.40;;;;;;10425068;28;20236;-70
2022/11/07 03:57:25;;;;;;;1.73;1.63;;;12.40;46.10;;;;;;10419783;28;20237;-70
2022/11/07 04:02:29;;;;;;;1.97;1.50;;;12.40;45.80;;;;;;10430350;28;20240;-68
2022/11/07 04:07:32;;;;;;;1.70;1.60;;;12.30;45.80;;;;;;10431692;28;20225;-68
2022/11/07 04:17:59;;;;;;;1.80;1.70;;;12.20;45.10;;;;;;10432231;28;20239;-68
2022/11/07 04:23:02;;;;;;;1.70;1.57;;;12.00;45.30;;;;;;10436801;28;20229;-68
2022/11/07 04:28:07;;;;;;;1.23;1.23;;;11.90;45.40;;;;;;10424957;28;20244;-68
2022/11/07 04:33:10;;;;;;;1.40;1.40;;;11.80;45.30;;;;;;10433881;28;20240;-68
2022/11/07 04:38:13;;;;;;;1.60;1.50;;;11.70;45.40;;;;;;10429768;28;20911;-68
2022/11/07 04:43:18;;;;;;;1.40;1.40;;;11.70;45.40;;;;;;10429033;28;20723;-70
2022/11/07 04:48:21;;;;;;;1.50;1.30;;;11.60;45.00;;;;;;10419758;28;20272;-70
2022/11/07 04:53:24;;;;;;;1.50;1.40;;;11.60;44.60;;;;;;10420818;28;20286;-72
2022/11/07 04:58:28;;;;;;;1.40;1.30;;;11.40;44.70;;;;;;10419829;28;20226;-73
2022/11/07 05:03:32;;;;;;;2.17;1.60;;;11.30;44.80;;;;;;10423829;28;20283;-72
2022/11/07 05:08:42;;;;;;;1.53;1.43;;;11.20;45.20;;;;;;10414832;28;20229;-73
2022/11/07 05:13:46;;;;;;;1.80;1.70;;;11.20;45.20;;;;;;10421141;28;20237;-68
2022/11/07 05:18:50;;;;;;;1.67;1.57;;;11.10;44.80;;;;;;10422557;28;20225;-68
2022/11/07 05:23:53;;;;;;;2.43;2.33;;;11.10;45.10;;;;;;10420508;28;20878;-68
2022/11/07 05:28:57;;;;;;;3.67;3.37;;;11.00;44.90;;;;;;10419499;28;20715;-68
2022/11/07 05:34:00;;;;;;;3.70;3.40;;;10.90;44.80;;;;;;10420842;28;20236;-68
2022/11/07 05:39:04;;;;;;;3.87;3.50;;;10.90;45.20;;;;;;10421448;28;20745;-68
2022/11/07 05:44:09;;;;;;;3.57;3.30;;;10.80;45.30;;;;;;10418809;28;20282;-68
2022/11/07 05:49:13;;;;;;;2.97;2.77;;;10.80;45.20;;;;;;10421199;28;20233;-68
2022/11/07 05:54:16;;;;;;;2.73;2.47;;;10.70;45.20;;;;;;10424012;28;20233;-69
2022/11/07 05:59:20;;;;;;;1.60;1.50;;;10.70;45.00;;;;;;10416487;28;21189;-69
2022/11/07 06:04:23;;;;;;;1.17;1.17;;;10.60;44.00;;;;;;10419182;28;20244;-70
2022/11/07 06:09:27;;;;;;;1.60;1.50;;;10.50;44.20;;;;;;10419265;28;20244;-70
2022/11/07 06:14:31;;;;;;;1.60;1.50;;;10.40;44.10;;;;;;10417639;28;20232;-70
2022/11/07 06:19:34;;;;;;;1.83;1.73;;;10.30;44.30;;;;;;10421353;28;20233;-69
2022/11/07 06:24:37;;;;;;;5.50;5.00;;;10.20;44.60;;;;;;10416637;28;20233;-70
2022/11/07 06:29:42;;;;;;;13.20;12.00;;;10.10;44.70;;;;;;10418546;28;20236;-70
2022/11/07 06:34:45;;;;;;;6.60;6.10;;;10.00;44.80;;;;;;10422565;28;20239;-68
2022/11/07 06:39:48;;;;;;;6.30;5.70;;;9.90;45.90;;;;;;10437833;28;20238;-68
2022/11/07 06:44:53;;;;;;;5.80;5.30;;;9.80;46.30;;;;;;10426896;28;20581;-70
2022/11/07 06:49:56;;;;;;;6.13;5.63;;;9.70;46.60;;;;;;10428302;28;20221;-70
2022/11/07 06:54:59;;;;;;;6.70;6.20;;;9.70;46.60;;;;;;10421312;28;20275;-71
2022/11/07 07:00:06;;;;;;;7.27;6.00;;;9.70;46.90;;;;;;10429491;28;20252;-70
2022/11/07 07:05:09;;;;;;;4.90;3.83;;;9.80;47.10;;;;;;10429526;28;20319;-70
2022/11/07 07:10:13;;;;;;;4.60;4.20;;;9.80;47.00;;;;;;10425469;28;20241;-70
2022/11/07 07:15:17;;;;;;;4.23;3.83;;;9.90;47.20;;;;;;10425225;28;20244;-70
2022/11/07 07:20:20;;;;;;;4.43;3.90;;;9.90;47.50;;;;;;10426280;28;20699;-69
2022/11/07 07:25:24;;;;;;;5.57;3.77;;;10.00;46.60;;;;;;10423074;28;20327;-68
2022/11/07 07:30:28;;;;;;;5.50;5.00;;;10.00;46.60;;;;;;10420380;28;20245;-68
2022/11/07 07:35:32;;;;;;;5.80;5.20;;;10.10;46.90;;;;;;10425855;28;20225;-67
2022/11/07 07:40:35;;;;;;;5.50;5.00;;;10.20;47.20;;;;;;10422319;28;20738;-68
2022/11/07 07:45:39;;;;;;;8.23;6.20;;;10.30;47.50;;;;;;10422589;28;20248;-69
2022/11/07 07:50:42;;;;;;;6.10;5.43;;;10.50;47.60;;;;;;10430346;28;20622;-69
2022/11/07 07:55:45;;;;;;;5.37;4.70;;;10.60;47.50;;;;;;10421660;28;20279;-69
2022/11/07 08:00:53;;;;;;;5.00;4.60;;;10.70;47.40;;;;;;10424887;28;20234;-73
2022/11/07 08:05:58;;;;;;;4.87;4.30;;;10.80;47.90;;;;;;10423685;28;20237;-73
2022/11/07 08:11:03;;;;;;;4.13;3.83;;;10.90;48.00;;;;;;10420046;28;20233;-73
2022/11/07 08:16:08;;;;;;;4.63;4.27;;;11.00;48.00;;;;;;10421933;28;20786;-73
2022/11/07 08:21:11;;;;;;;4.77;4.30;;;11.10;48.30;;;;;;10426009;28;20264;-73
2022/11/07 08:26:14;;;;;;;4.80;4.30;;;11.20;48.30;;;;;;10423989;28;20663;-73
2022/11/07 08:31:18;;;;;;;5.50;4.37;;;11.40;48.60;;;;;;10420114;28;20236;-73
2022/11/07 08:36:21;;;;;;;4.70;4.30;;;11.50;49.00;;;;;;10420087;28;20248;-73
2022/11/07 08:41:25;;;;;;;4.37;3.97;;;11.70;48.90;;;;;;10419168;28;20236;-73
2022/11/07 08:46:29;;;;;;;4.23;3.83;;;11.80;49.00;;;;;;10424554;28;20252;-67
2022/11/07 08:51:33;;;;;;;4.40;4.00;;;12.00;49.40;;;;;;10416894;28;20237;-73
2022/11/07 08:56:36;;;;;;;4.33;3.93;;;12.10;49.20;;;;;;10423790;28;20237;-73
2022/11/07 09:01:40;;;;;;;4.90;4.27;;;12.30;49.40;;;;;;10420089;28;20601;-73
2022/11/07 09:07:04;;;;;;;4.30;3.87;;;12.40;49.70;;;;;;10413715;28;20319;-69
2022/11/07 09:12:07;;;;;;;5.63;3.90;;;12.50;49.50;;;;;;10421762;28;20325;-67
2022/11/07 09:17:12;;;;;;;3.97;3.03;;;12.70;49.70;;;;;;10417103;28;20730;-67
2022/11/07 09:22:15;;;;;;;3.50;3.20;;;12.80;49.80;;;;;;10419920;28;20260;-67
2022/11/07 09:27:18;;;;;;;3.50;3.13;;;13.00;49.80;;;;;;10414873;28;20255;-67
2022/11/07 09:32:23;;;;;;;3.27;2.97;;;13.20;50.20;;;;;;10416452;28;20801;-67
2022/11/07 09:37:46;;;;;;;3.33;2.83;;;13.30;50.20;;;;;;10417317;28;20252;-67
2022/11/07 09:43:00;;;;;;;3.03;2.83;;;13.60;50.20;;;;;;10415147;28;20913;-67
2022/11/07 09:48:08;;;;;;;4.30;2.90;;;13.70;50.60;;;;;;10419513;28;20271;-67
2022/11/07 09:53:18;;;;;;;2.60;2.40;;;14.00;50.20;;;;;;10417269;28;20260;-67
2022/11/07 09:58:26;;;;;;;2.67;2.37;;;14.30;50.80;;;;;;10418241;28;20222;-67
2022/11/07 10:03:31;;;;;;;5.07;3.00;;;14.50;50.80;;;;;;10418091;28;20233;-67
2022/11/07 10:08:40;;;;;;;1.77;1.67;;;14.80;50.60;;;;;;10414904;28;20232;-73
2022/11/07 10:13:57;;;;;;;2.33;1.93;;;15.10;49.30;;;;;;10424633;28;20233;-73
2022/11/07 10:19:20;;;;;;;2.00;1.57;;;15.30;48.60;;;;;;10428808;28;20221;-73
2022/11/07 10:24:43;;;;;;;2.17;1.30;;;15.60;47.60;;;;;;10425026;28;20247;-73
2022/11/07 10:29:49;;;;;;;2.40;1.70;;;16.00;47.70;;;;;;10419514;28;20224;-68
2022/11/07 10:35:01;;;;;;;1.63;1.53;;;16.20;47.50;;;;;;10426601;28;20237;-67
2022/11/07 10:40:14;;;;;;;2.63;1.60;;;16.40;46.30;;;;;;10425841;28;20245;-70
2022/11/07 10:45:18;;;;;;;1.73;1.40;;;16.60;45.80;;;;;;10426508;28;20249;-67
2022/11/07 10:50:24;;;;;;;1.43;1.33;;;16.80;46.50;;;;;;10425991;28;20240;-67
2022/11/07 10:55:28;;;;;;;2.23;1.40;;;17.00;46.10;;;;;;10430254;28;20232;-67
2022/11/07 11:00:33;;;;;;;1.37;1.27;;;17.20;46.30;;;;;;10423361;28;20225;-67
2022/11/07 11:05:45;;;;;;;1.57;1.20;;;17.30;45.80;;;;;;10425069;28;20240;-73
2022/11/07 11:10:50;;;;;;;1.87;1.33;;;17.40;44.20;;;;;;10420081;28;20766;-73
2022/11/07 11:15:54;;;;;;;1.87;1.27;;;17.50;45.10;;;;;;10423241;28;20881;-74
2022/11/07 11:21:01;;;;;;;1.83;1.40;;;17.50;45.00;;;;;;10420876;28;20237;-74
2022/11/07 11:26:08;;;;;;;1.40;1.20;;;17.50;44.00;;;;;;10428194;28;20430;-74
2022/11/07 11:31:20;;;;;;;1.87;1.40;;;17.60;43.90;;;;;;10419531;28;20237;-74
2022/11/07 11:36:28;;;;;;;2.93;1.20;;;17.60;43.80;;;;;;10421281;28;21074;-69
2022/11/07 11:41:37;;;;;;;1.47;1.17;;;17.70;44.30;;;;;;10422570;28;20233;-69
2022/11/07 11:46:49;;;;;;;1.50;1.10;;;17.80;43.80;;;;;;10428971;28;20236;-69
2022/11/07 11:51:58;;;;;;;3.17;2.87;;;17.90;42.80;;;;;;10415904;28;20229;-69
2022/11/07 11:57:05;;;;;;;4.80;3.70;;;18.10;42.50;;;;;;10413821;28;20228;-69
2022/11/07 12:02:32;;;;;;;3.07;2.40;;;18.20;43.40;;;;;;10413468;28;20601;-69
2022/11/07 12:07:51;;;;;;;2.17;1.73;;;18.20;41.80;;;;;;10401178;28;20252;-68
2022/11/07 12:13:08;;;;;;;3.63;2.20;;;18.30;42.00;;;;;;10414350;28;20233;-68
2022/11/07 12:18:19;;;;;;;3.00;2.00;;;18.30;41.70;;;;;;10408663;28;20245;-68
2022/11/07 12:23:33;;;;;;;2.10;1.30;;;18.30;41.70;;;;;;10409749;28;20646;-68
2022/11/07 12:28:46;;;;;;;1.30;1.10;;;18.30;41.60;;;;;;10410617;28;20824;-69
2022/11/07 12:33:57;;;;;;;2.30;1.17;;;18.30;41.10;;;;;;10412070;28;20857;-69
2022/11/07 12:39:15;;;;;;;1.83;1.10;;;18.40;41.10;;;;;;10410523;28;20228;-68
2022/11/07 12:44:39;;;;;;;2.13;1.50;;;18.30;39.80;;;;;;10415248;28;20225;-70
2022/11/07 12:49:58;;;;;;;1.83;1.20;;;18.30;40.20;;;;;;10419724;28;20235;-69
2022/11/07 12:55:14;;;;;;;1.90;1.10;;;18.30;39.80;;;;;;10415764;28;20236;-69
2022/11/07 13:00:20;;;;;;;1.30;1.00;;;18.30;40.70;;;;;;10419586;28;20642;-69
2022/11/07 13:05:49;;;;;;;1.10;1.00;;;18.20;41.00;;;;;;10415846;28;20849;-68
2022/11/07 13:10:59;;;;;;;2.20;1.13;;;18.20;39.80;;;;;;10416625;28;20256;-66
2022/11/07 13:16:07;;;;;;;1.30;1.00;;;18.30;40.30;;;;;;10420086;28;20723;-69
2022/11/07 13:21:17;;;;;;;2.40;1.17;;;18.30;40.40;;;;;;10414107;28;20278;-68
2022/11/07 13:26:29;;;;;;;0.97;0.90;;;18.30;41.50;;;;;;10415517;28;20657;-68
2022/11/07 13:32:05;;;;;;;2.23;1.03;;;18.30;39.90;;;;;;10416463;28;20280;-69
2022/11/07 13:37:15;;;;;;;2.17;1.20;;;18.30;40.10;;;;;;10416065;28;20718;-67
2022/11/07 13:42:22;;;;;;;2.00;1.10;;;18.30;40.60;;;;;;10416182;28;20236;-67
2022/11/07 13:47:32;;;;;;;1.47;1.10;;;18.30;40.40;;;;;;10416376;28;20240;-69
2022/11/07 13:52:41;;;;;;;1.90;1.10;;;18.30;40.90;;;;;;10416595;28;20229;-69
2022/11/07 13:57:51;;;;;;;1.30;1.10;;;18.30;39.80;;;;;;10420541;28;20232;-69
2022/11/07 14:02:56;;;;;;;2.00;1.20;;;18.30;39.70;;;;;;10411639;28;20228;-69
2022/11/07 14:08:02;;;;;;;1.67;1.00;;;18.30;40.40;;;;;;10418987;28;20823;-69
2022/11/07 14:13:09;;;;;;;1.23;1.00;;;18.30;40.30;;;;;;10415595;28;20236;-70
2022/11/07 14:18:14;;;;;;;1.50;1.30;;;18.30;40.00;;;;;;10420942;28;20232;-69
2022/11/07 14:23:22;;;;;;;3.20;1.30;;;18.30;40.40;;;;;;10417428;28;20272;-69
2022/11/07 14:28:33;;;;;;;1.20;1.10;;;18.30;40.00;;;;;;10419466;28;20716;-69
2022/11/07 14:33:36;;;;;;;1.97;1.47;;;18.30;39.40;;;;;;10414709;28;20914;-69
2022/11/07 14:38:46;;;;;;;1.67;1.37;;;18.30;40.40;;;;;;10419040;28;20233;-69
2022/11/07 14:43:51;;;;;;;2.30;1.47;;;18.20;39.00;;;;;;10419562;28;20233;-67
2022/11/07 14:48:55;;;;;;;2.77;1.73;;;18.20;39.80;;;;;;10418414;28;20723;-69
2022/11/07 14:54:01;;;;;;;2.13;1.20;;;18.20;40.40;;;;;;10417320;28;20236;-69
2022/11/07 14:59:09;;;;;;;1.97;1.13;;;18.20;40.10;;;;;;10420770;28;20228;-67
2022/11/07 15:04:16;;;;;;;4.33;3.73;;;18.10;39.40;;;;;;10428128;28;20262;-67
2022/11/07 15:09:31;;;;;;;3.30;2.20;;;18.10;39.40;;;;;;10423718;28;20236;-69
2022/11/07 15:14:36;;;;;;;1.83;1.30;;;18.00;39.20;;;;;;10427863;28;21817;-74
2022/11/07 15:19:39;;;;;;;2.60;1.40;;;17.90;39.70;;;;;;10425886;28;20290;-73
2022/11/07 15:24:44;;;;;;;1.33;1.20;;;17.80;40.30;;;;;;10422472;28;20230;-73
2022/11/07 15:29:53;;;;;;;3.00;1.60;;;17.80;40.10;;;;;;10421506;28;20237;-73
2022/11/07 15:34:57;;;;;;;4.40;2.50;;;17.70;39.40;;;;;;10422859;28;20645;-73
2022/11/07 15:40:21;;;;;;;4.03;2.20;;;17.60;40.40;;;;;;10423204;28;20236;-74
2022/11/07 15:45:25;;;;;;;3.70;2.40;;;17.50;40.20;;;;;;10423376;28;20785;-73
2022/11/07 15:50:29;;;;;;;3.77;2.70;;;17.40;39.90;;;;;;10420281;28;20900;-68
2022/11/07 15:55:33;;;;;;;3.83;2.50;;;17.30;40.30;;;;;;10422475;28;20245;-68
2022/11/07 16:00:38;;;;;;;3.17;2.33;;;17.30;40.30;;;;;;10422751;28;20240;-69
2022/11/07 16:05:42;;;;;;;4.17;3.77;;;17.30;40.20;;;;;;10421208;28;20225;-70
2022/11/07 16:10:48;;;;;;;3.20;2.90;;;17.20;40.20;;;;;;10418728;28;20236;-70
2022/11/07 16:15:56;;;;;;;4.20;2.87;;;17.00;40.00;;;;;;10421341;28;20360;-70
2022/11/07 16:21:00;;;;;;;3.83;3.53;;;16.90;40.00;;;;;;10419279;28;20866;-70
2022/11/07 16:26:04;;;;;;;5.33;3.80;;;16.70;40.50;;;;;;10420841;28;20233;-71
2022/11/07 16:31:08;;;;;;;5.37;4.10;;;16.70;40.60;;;;;;10416956;28;21259;-70
2022/11/07 16:36:21;;;;;;;6.00;5.40;;;16.50;40.30;;;;;;10423143;28;21105;-70
2022/11/07 16:41:24;;;;;;;5.30;4.73;;;16.40;40.20;;;;;;10414769;28;20236;-70
2022/11/07 16:46:35;;;;;;;5.07;4.57;;;16.40;41.10;;;;;;10423440;28;20241;-69
2022/11/07 16:51:38;;;;;;;6.37;4.90;;;16.30;41.00;;;;;;10418633;28;20284;-70
2022/11/07 16:56:41;;;;;;;5.40;3.90;;;16.40;41.30;;;;;;10421645;28;20229;-67
2022/11/07 17:01:46;;;;;;;7.60;5.20;;;16.40;41.20;;;;;;10423792;28;20221;-69
2022/11/07 17:06:49;;;;;;;4.57;4.17;;;16.40;40.90;;;;;;10417779;28;20312;-69
2022/11/07 17:11:52;;;;;;;6.27;3.90;;;16.40;41.10;;;;;;10418994;28;20230;-69
2022/11/07 17:16:57;;;;;;;3.23;2.93;;;16.40;40.90;;;;;;10420256;28;20631;-69
2022/11/07 17:22:03;;;;;;;3.27;2.97;;;16.40;40.50;;;;;;10414083;28;20233;-69
2022/11/07 17:27:18;;;;;;;4.97;4.47;;;16.30;40.60;;;;;;10417744;28;20237;-68
2022/11/07 17:32:23;;;;;;;6.37;4.97;;;16.20;40.00;;;;;;10417638;28;20325;-67
2022/11/07 17:37:26;;;;;;;6.47;5.87;;;16.10;40.30;;;;;;10419176;28;21095;-69
2022/11/07 17:42:29;;;;;;;6.77;6.07;;;16.00;40.50;;;;;;10419659;28;20253;-67
2022/11/07 17:47:41;;;;;;;9.67;6.83;;;16.00;40.40;;;;;;10422232;28;20231;-68
2022/11/07 17:52:44;;;;;;;7.27;5.90;;;15.90;40.20;;;;;;10420042;28;20699;-68
2022/11/07 17:57:48;;;;;;;8.17;6.80;;;15.80;40.30;;;;;;10418239;28;20234;-68
2022/11/07 18:02:52;;;;;;;8.40;7.60;;;15.70;40.30;;;;;;10416803;28;20228;-69
2022/11/07 18:07:56;;;;;;;13.30;10.33;;;15.60;40.30;;;;;;10417092;28;20956;-74
2022/11/07 18:12:59;;;;;;;46.53;33.73;;;15.60;40.30;;;;;;10423403;28;20240;-69
2022/11/07 18:18:04;;;;;;;53.57;39.23;;;15.50;40.10;;;;;;10417603;28;20229;-71
2022/11/07 18:23:12;;;;;;;32.10;25.83;;;15.40;39.90;;;;;;10414288;28;20233;-69
2022/11/07 18:28:15;;;;;;;16.13;12.47;;;15.30;40.20;;;;;;10417237;28;20236;-69
2022/11/07 18:33:21;;;;;;;9.47;8.17;;;15.20;40.20;;;;;;10424484;28;20272;-69
2022/11/07 18:38:24;;;;;;;9.90;8.83;;;15.10;40.00;;;;;;10427900;28;20264;-69
2022/11/07 18:43:27;;;;;;;24.13;20.27;;;15.00;40.10;;;;;;10424590;28;20801;-69
2022/11/07 18:48:32;;;;;;;19.67;17.67;;;14.90;40.10;;;;;;10422272;28;20696;-69
2022/11/07 18:53:35;;;;;;;16.90;15.27;;;14.80;40.00;;;;;;10419621;28;20240;-74
2022/11/07 18:58:40;;;;;;;17.20;15.50;;;14.80;40.20;;;;;;10427215;28;20232;-74
2022/11/07 19:03:45;;;;;;;11.73;10.60;;;14.60;39.90;;;;;;10424265;28;20234;-74
2022/11/07 19:08:48;;;;;;;9.43;8.60;;;14.50;39.80;;;;;;10427100;28;20228;-74
2022/11/07 19:13:53;;;;;;;8.10;6.70;;;14.50;39.90;;;;;;10418992;28;20237;-74
2022/11/07 19:18:59;;;;;;;8.87;6.67;;;14.40;39.80;;;;;;10427396;28;20229;-69
2022/11/07 19:24:02;;;;;;;7.40;6.70;;;14.20;39.60;;;;;;10422551;28;20229;-70
2022/11/07 19:29:05;;;;;;;8.10;7.27;;;14.10;39.80;;;;;;10420221;28;20232;-69
2022/11/07 19:34:10;;;;;;;8.27;7.47;;;14.00;39.80;;;;;;10423397;28;20650;-69
2022/11/07 19:39:13;;;;;;;8.80;7.93;;;13.90;39.90;;;;;;10422946;28;20310;-69
2022/11/07 19:44:16;;;;;;;8.10;7.30;;;13.80;39.90;;;;;;10421354;28;20229;-68
2022/11/07 19:49:21;;;;;;;8.30;7.57;;;13.70;40.00;;;;;;10423130;28;20323;-67
2022/11/07 19:54:24;;;;;;;7.70;7.00;;;13.60;40.00;;;;;;10423893;28;20240;-67
2022/11/07 19:59:27;;;;;;;6.67;6.07;;;13.60;40.10;;;;;;10422534;28;20237;-67
2022/11/07 20:04:31;;;;;;;6.33;5.63;;;13.50;40.10;;;;;;10424057;28;20300;-67
2022/11/07 20:09:35;;;;;;;6.67;6.07;;;13.40;40.10;;;;;;10425767;28;20233;-67
2022/11/07 20:14:38;;;;;;;10.07;6.67;;;13.40;40.20;;;;;;10423325;28;20239;-67
2022/11/07 20:19:43;;;;;;;7.07;6.37;;;13.30;40.20;;;;;;10418760;28;20244;-68
2022/11/07 20:24:46;;;;;;;7.23;6.63;;;13.30;40.30;;;;;;10406850;28;20232;-68
2022/11/07 20:29:49;;;;;;;9.60;7.67;;;13.20;40.20;;;;;;10410497;28;20643;-68
2022/11/07 20:34:54;;;;;;;9.20;8.30;;;13.20;40.20;;;;;;10406117;28;20229;-68
2022/11/07 20:39:58;;;;;;;9.43;8.03;;;13.10;40.10;;;;;;10406286;28;20235;-67
2022/11/07 20:45:01;;;;;;;9.20;8.23;;;13.00;40.30;;;;;;10407118;28;20240;-68
2022/11/07 20:50:06;;;;;;;9.43;8.53;;;12.90;40.20;;;;;;10407724;28;20244;-68
2022/11/07 20:55:10;;;;;;;9.13;7.30;;;12.90;40.20;;;;;;10401754;28;20767;-68
2022/11/07 21:00:15;;;;;;;9.57;8.73;;;12.80;40.30;;;;;;10403463;28;20232;-68
2022/11/07 21:05:20;;;;;;;9.37;7.73;;;12.70;40.30;;;;;;10386621;28;20269;-68
2022/11/07 21:10:24;;;;;;;8.37;7.57;;;12.70;40.20;;;;;;10399348;28;20714;-68
2022/11/07 21:15:27;;;;;;;8.10;7.40;;;12.60;40.10;;;;;;10399517;28;20229;-68
2022/11/07 21:20:31;;;;;;;7.70;6.70;;;12.50;40.20;;;;;;10404716;28;20243;-68
2022/11/07 21:25:41;;;;;;;7.00;6.00;;;12.50;40.40;;;;;;10402729;28;20259;-68
2022/11/07 21:30:45;;;;;;;8.00;7.20;;;12.40;40.40;;;;;;10402432;28;20229;-69
2022/11/07 21:35:49;;;;;;;8.50;7.50;;;12.40;40.40;;;;;;10405208;28;20240;-68
2022/11/07 21:40:52;;;;;;;8.03;7.27;;;12.30;40.20;;;;;;10400761;28;20217;-69
2022/11/07 21:45:56;;;;;;;8.97;8.07;;;12.30;40.30;;;;;;10407828;28;20240;-69
2022/11/07 21:51:04;;;;;;;8.67;7.80;;;12.30;40.20;;;;;;10404617;28;20229;-69
2022/11/07 21:56:12;;;;;;;8.90;8.00;;;12.20;40.10;;;;;;10401935;28;20231;-67
2022/11/07 22:01:16;;;;;;;9.43;8.43;;;12.10;40.10;;;;;;10404710;28;20226;-69
2022/11/07 22:06:21;;;;;;;9.73;8.47;;;12.10;40.20;;;;;;10405113;28;20241;-68
2022/11/07 22:11:25;;;;;;;7.17;6.57;;;12.00;39.80;;;;;;10403860;28;20282;-69
2022/11/07 22:16:28;;;;;;;7.80;6.87;;;11.80;40.00;;;;;;10404537;28;20232;-69
2022/11/07 22:21:33;;;;;;;7.70;6.90;;;11.70;40.90;;;;;;10405903;28;20463;-68
2022/11/07 22:26:37;;;;;;;7.30;6.43;;;11.60;40.20;;;;;;10408320;28;20236;-67
2022/11/07 22:31:40;;;;;;;6.37;5.33;;;11.50;40.40;;;;;;10409631;28;21075;-73
2022/11/07 22:36:44;;;;;;;5.33;4.83;;;11.50;40.20;;;;;;10407717;28;20865;-73
2022/11/07 22:41:48;;;;;;;4.60;4.20;;;11.40;40.50;;;;;;10407218;28;20237;-73
2022/11/07 22:46:51;;;;;;;6.07;5.57;;;11.30;40.70;;;;;;10406340;28;20233;-73
2022/11/07 22:51:56;;;;;;;5.70;5.20;;;11.20;41.00;;;;;;10404111;28;20225;-67
2022/11/07 22:56:59;;;;;;;6.27;5.77;;;11.20;41.00;;;;;;10408545;28;20241;-67
2022/11/07 23:02:02;;;;;;;6.37;5.87;;;11.20;41.00;;;;;;10408960;28;20240;-67
2022/11/07 23:07:07;;;;;;;5.57;4.80;;;11.20;40.80;;;;;;10409160;28;20253;-67
2022/11/07 23:12:10;;;;;;;5.50;5.00;;;11.20;41.00;;;;;;10409874;28;20241;-67
2022/11/07 23:17:13;;;;;;;8.43;6.27;;;11.10;40.90;;;;;;10407842;28;20228;-67
2022/11/07 23:22:18;;;;;;;6.13;5.53;;;11.20;41.00;;;;;;10414623;28;20234;-67
2022/11/07 23:27:21;;;;;;;5.77;5.17;;;11.10;40.90;;;;;;10415321;28;21020;-69
2022/11/07 23:32:26;;;;;;;5.73;5.13;;;11.10;40.90;;;;;;10413387;28;20731;-69
2022/11/07 23:37:31;;;;;;;5.57;4.93;;;11.10;40.90;;;;;;10413173;28;20233;-69
2022/11/07 23:42:35;;;;;;;5.97;4.70;;;11.00;40.80;;;;;;10414804;28;20237;-69
2022/11/07 23:55:35;;;;;;;5.37;4.70;;;10.90;40.70;;;;;;10415409;28;20237;-69
